createdAt,value
2022-08-26T00:01:53.976Z,76.84
2022-08-26T00:04:23.613Z,77.24
2022-08-26T00:06:51.507Z,76.77
2022-08-26T00:09:18.622Z,76.82
2022-08-26T00:11:45.918Z,76.92
2022-08-26T00:14:14.162Z,76.95
2022-08-26T00:16:47.929Z,76.63
2022-08-26T00:19:20.620Z,76.57
2022-08-26T00:21:49.759Z,76.57
2022-08-26T00:24:19.214Z,76.79
2022-08-26T00:26:46.845Z,77.27
2022-08-26T00:29:13.898Z,77.46
2022-08-26T00:31:42.624Z,76.88
2022-08-26T00:34:12.606Z,77.10
2022-08-26T00:36:41.009Z,77.42
2022-08-26T00:39:09.063Z,77.55
2022-08-26T00:41:40.528Z,76.82
2022-08-26T00:44:10.995Z,76.50
2022-08-26T00:46:55.767Z,76.88
2022-08-26T00:49:34.922Z,77.11
2022-08-26T00:52:05.822Z,76.52
2022-08-26T00:54:46.763Z,76.43
2022-08-26T00:57:17.912Z,76.18
2022-08-26T00:59:54.333Z,75.73
2022-08-26T01:02:21.811Z,76.20
2022-08-26T01:04:57.959Z,76.10
2022-08-26T01:07:31.281Z,77.56
2022-08-26T01:10:01.384Z,78.29
2022-08-26T01:12:32.309Z,78.46
2022-08-26T01:14:59.849Z,78.71
2022-08-26T01:17:26.716Z,78.42
2022-08-26T01:20:04.836Z,78.29
2022-08-26T01:22:56.625Z,78.38
2022-08-26T01:25:26.762Z,78.11
2022-08-26T01:27:57.705Z,78.57
2022-08-26T01:30:29.409Z,78.29
2022-08-26T01:32:59.726Z,77.73
2022-08-26T01:35:28.001Z,77.47
2022-08-26T01:37:56.584Z,77.30
2022-08-26T01:40:31.954Z,77.10
2022-08-26T01:43:02.137Z,76.45
2022-08-26T01:45:33.750Z,76.34
2022-08-26T01:48:05.044Z,76.51
2022-08-26T01:50:35.169Z,76.79
2022-08-26T01:53:07.706Z,77.08
2022-08-26T01:55:39.702Z,77.21
2022-08-26T01:58:17.552Z,76.66
2022-08-26T02:00:46.526Z,76.74
2022-08-26T02:03:21.523Z,76.90
2022-08-26T02:06:00.132Z,77.05
2022-08-26T02:08:37.287Z,78.42
2022-08-26T02:11:05.016Z,78.35
2022-08-26T02:13:35.989Z,78.29
2022-08-26T02:16:03.891Z,78.30
2022-08-26T02:18:36.955Z,78.07
2022-08-26T02:21:06.634Z,78.33
2022-08-26T02:23:33.914Z,78.41
2022-08-26T02:26:14.360Z,78.26
2022-08-26T02:29:31.614Z,77.42
2022-08-26T02:31:59.097Z,77.18
2022-08-26T02:34:32.193Z,77.78
2022-08-26T02:37:03.420Z,78.10
2022-08-26T02:39:31.709Z,78.52
2022-08-26T02:41:59.201Z,78.19
2022-08-26T02:44:27.258Z,78.78
2022-08-26T02:46:54.993Z,78.77
2022-08-26T02:49:23.691Z,79.39
2022-08-26T02:51:51.995Z,79.52
2022-08-26T02:54:21.508Z,79.61
2022-08-26T02:56:49.088Z,79.67
2022-08-26T02:59:16.056Z,80.03
2022-08-26T03:01:45.012Z,80.27
2022-08-26T03:04:13.100Z,79.13
2022-08-26T03:06:41.542Z,78.53
2022-08-26T03:09:09.762Z,79.09
2022-08-26T03:11:37.604Z,79.06
2022-08-26T03:14:05.017Z,79.42
2022-08-26T03:16:35.277Z,79.57
2022-08-26T03:19:05.389Z,79.55
2022-08-26T03:21:33.982Z,79.38
2022-08-26T03:24:03.724Z,79.88
2022-08-26T03:26:31.129Z,79.88
2022-08-26T03:29:16.660Z,79.81
2022-08-26T03:31:43.619Z,80.67
2022-08-26T03:34:14.144Z,79.13
2022-08-26T03:36:42.056Z,78.65
2022-08-26T03:39:11.093Z,78.97
2022-08-26T03:41:38.694Z,79.22
2022-08-26T03:44:08.777Z,79.61
2022-08-26T03:46:36.691Z,79.76
2022-08-26T03:49:07.683Z,78.78
2022-08-26T03:51:38.716Z,78.30
2022-08-26T03:54:08.320Z,79.64
2022-08-26T03:56:36.554Z,79.86
2022-08-26T03:59:04.299Z,80.30
2022-08-26T04:01:31.828Z,80.68
2022-08-26T04:04:00.045Z,80.72
2022-08-26T04:06:38.651Z,80.90
2022-08-26T04:09:20.900Z,81.01
2022-08-26T04:11:50.331Z,81.17
2022-08-26T04:14:23.602Z,80.93
2022-08-26T04:16:52.512Z,80.93
2022-08-26T04:19:20.642Z,81.17
2022-08-26T04:21:51.918Z,81.15
2022-08-26T04:24:22.184Z,80.90
2022-08-26T04:26:49.163Z,81.15
2022-08-26T04:29:21.488Z,81.44
2022-08-26T04:31:48.645Z,81.76
2022-08-26T04:34:17.181Z,80.07
2022-08-26T04:36:45.099Z,80.06
2022-08-26T04:39:14.880Z,80.22
2022-08-26T04:41:41.738Z,79.73
2022-08-26T04:44:08.626Z,79.01
2022-08-26T04:46:36.443Z,79.11
2022-08-26T04:49:11.277Z,79.38
2022-08-26T04:51:39.282Z,79.54
2022-08-26T04:54:07.406Z,80.25
2022-08-26T04:56:40.067Z,80.59
2022-08-26T04:59:16.509Z,80.06
2022-08-26T05:01:52.858Z,79.24
2022-08-26T05:04:20.909Z,78.73
2022-08-26T05:06:49.272Z,79.01
2022-08-26T05:09:18.519Z,78.50
2022-08-26T05:11:48.414Z,78.23
2022-08-26T05:14:20.273Z,77.86
2022-08-26T05:16:47.985Z,77.50
2022-08-26T05:19:18.927Z,76.49
2022-08-26T05:21:47.699Z,76.65
2022-08-26T05:24:15.498Z,76.53
2022-08-26T05:26:44.620Z,76.09
2022-08-26T05:29:12.316Z,75.17
2022-08-26T05:31:39.190Z,75.32
2022-08-26T05:34:06.146Z,75.86
2022-08-26T05:36:35.522Z,75.49
2022-08-26T05:39:04.564Z,74.77
2022-08-26T05:41:38.305Z,74.93
2022-08-26T05:44:11.070Z,75.02
2022-08-26T05:46:40.259Z,74.69
2022-08-26T05:49:12.646Z,74.55
2022-08-26T05:51:41.812Z,74.71
2022-08-26T05:54:10.573Z,75.32
2022-08-26T05:56:39.188Z,75.03
2022-08-26T05:59:08.107Z,74.48
2022-08-26T06:01:42.798Z,73.89
2022-08-26T06:04:10.589Z,74.64
2022-08-26T06:06:41.221Z,73.70
2022-08-26T06:09:11.189Z,72.99
2022-08-26T06:11:39.159Z,74.07
2022-08-26T06:14:07.873Z,73.37
2022-08-26T06:16:38.736Z,73.15
2022-08-26T06:19:11.484Z,73.34
2022-08-26T06:21:41.834Z,73.18
2022-08-26T06:24:32.786Z,72.63
2022-08-26T06:27:08.251Z,72.81
2022-08-26T06:29:36.261Z,72.39
2022-08-26T06:32:05.391Z,72.33
2022-08-26T06:34:32.796Z,72.02
2022-08-26T06:37:06.420Z,72.66
2022-08-26T06:39:33.549Z,72.09
2022-08-26T06:42:02.686Z,71.73
2022-08-26T06:44:30.544Z,73.27
2022-08-26T06:46:59.191Z,73.14
2022-08-26T06:49:27.322Z,72.35
2022-08-26T06:51:58.842Z,71.03
2022-08-26T06:54:27.511Z,70.93
2022-08-26T06:56:56.801Z,70.26
2022-08-26T06:59:24.198Z,68.91
2022-08-26T07:01:52.225Z,67.99
2022-08-26T07:04:21.864Z,68.43
2022-08-26T07:06:52.399Z,68.17
2022-08-26T07:09:23.133Z,68.06
2022-08-26T07:11:51.798Z,67.67
2022-08-26T07:14:21.698Z,65.63
2022-08-26T07:16:50.013Z,66.87
2022-08-26T07:19:29.861Z,65.52
2022-08-26T07:22:04.447Z,64.99
2022-08-26T07:24:40.207Z,64.43
2022-08-26T07:27:14.025Z,63.64
2022-08-26T07:29:43.372Z,63.29
2022-08-26T07:32:13.637Z,63.04
2022-08-26T07:34:41.805Z,63.80
2022-08-26T07:37:09.073Z,65.19
2022-08-26T07:39:36.157Z,64.38
2022-08-26T07:42:08.049Z,65.86
2022-08-26T07:44:37.215Z,64.70
2022-08-26T07:47:04.240Z,63.75
2022-08-26T07:49:46.248Z,65.07
2022-08-26T07:52:14.828Z,63.59
2022-08-26T07:54:41.742Z,65.20
2022-08-26T07:57:09.401Z,64.28
2022-08-26T07:59:37.078Z,65.61
2022-08-26T08:02:04.768Z,63.00
2022-08-26T08:04:31.641Z,61.35
2022-08-26T08:06:58.559Z,59.05
2022-08-26T08:09:26.053Z,57.70
2022-08-26T08:11:54.263Z,55.58
2022-08-26T08:14:22.235Z,53.26
2022-08-26T08:16:51.287Z,52.59
2022-08-26T08:19:23.875Z,53.75
2022-08-26T08:21:51.920Z,53.94
2022-08-26T08:24:19.172Z,53.37
2022-08-26T08:26:46.173Z,52.58
2022-08-26T08:29:13.196Z,51.51
2022-08-26T08:31:58.301Z,51.71
2022-08-26T08:34:28.869Z,51.68
2022-08-26T08:36:57.577Z,52.59
2022-08-26T08:39:25.514Z,52.38
2022-08-26T08:42:33.473Z,54.72
2022-08-26T08:45:09.553Z,53.40
2022-08-26T08:47:45.101Z,53.23
2022-08-26T08:50:53.973Z,54.18
2022-08-26T08:53:34.676Z,55.07
2022-08-26T08:56:29.235Z,53.08
2022-08-26T08:59:24.221Z,53.43
2022-08-26T09:02:22.350Z,52.62
2022-08-26T09:05:16.932Z,52.97
2022-08-26T09:08:02.578Z,53.50
2022-08-26T09:10:53.907Z,52.10
2022-08-26T09:13:26.206Z,50.27
2022-08-26T09:16:07.483Z,49.46
2022-08-26T09:19:20.409Z,50.90
2022-08-26T09:21:59.641Z,49.47
2022-08-26T09:24:29.965Z,52.46
2022-08-26T09:26:59.069Z,52.20
2022-08-26T09:29:28.921Z,52.29
2022-08-26T09:32:24.337Z,49.78
2022-08-26T09:35:07.735Z,50.39
2022-08-26T09:37:40.459Z,48.01
2022-08-26T09:40:27.018Z,47.74
2022-08-26T09:43:13.426Z,46.11
2022-08-26T09:45:50.815Z,46.81
2022-08-26T09:48:36.876Z,49.41
2022-08-26T09:51:28.637Z,46.87
2022-08-26T09:53:59.693Z,45.21
2022-08-26T09:56:38.312Z,47.18
2022-08-26T09:59:11.447Z,47.52
2022-08-26T10:01:44.707Z,48.04
2022-08-26T10:04:19.770Z,49.26
2022-08-26T10:07:08.142Z,47.57
2022-08-26T10:09:41.945Z,48.97
2022-08-26T10:12:17.314Z,47.29
2022-08-26T10:14:52.917Z,49.04
2022-08-26T10:17:34.353Z,49.19
2022-08-26T10:20:05.870Z,48.12
2022-08-26T10:23:12.867Z,47.03
2022-08-26T10:26:05.776Z,46.16
2022-08-26T10:28:45.847Z,42.63
2022-08-26T10:31:29.221Z,43.62
2022-08-26T10:34:00.081Z,44.44
2022-08-26T10:37:15.854Z,43.89
2022-08-26T10:39:49.163Z,42.50
2022-08-26T10:42:21.371Z,43.29
2022-08-26T10:44:53.045Z,42.44
2022-08-26T10:47:33.283Z,41.31
2022-08-26T10:50:03.391Z,42.80
2022-08-26T10:53:00.241Z,46.11
2022-08-26T10:55:43.504Z,45.28
2022-08-26T10:58:42.635Z,44.00
2022-08-26T11:01:43.046Z,45.45
2022-08-26T11:04:44.411Z,47.32
2022-08-26T11:07:33.368Z,46.15
2022-08-26T11:10:02.832Z,45.30
2022-08-26T11:12:38.212Z,44.99
2022-08-26T11:15:30.878Z,43.29
2022-08-26T11:18:05.516Z,43.02
2022-08-26T11:20:44.811Z,44.73
2022-08-26T11:23:12.692Z,42.46
2022-08-26T11:25:58.891Z,44.27
2022-08-26T11:28:50.790Z,43.22
2022-08-26T11:31:18.925Z,44.29
2022-08-26T11:33:48.758Z,43.97
2022-08-26T11:36:56.891Z,44.18
2022-08-26T11:39:52.643Z,42.34
2022-08-26T11:42:42.716Z,44.15
2022-08-26T11:45:38.932Z,45.68
2022-08-26T11:48:19.280Z,45.62
2022-08-26T11:51:08.564Z,45.66
2022-08-26T11:53:42.589Z,43.88
2022-08-26T11:56:33.168Z,44.05
2022-08-26T11:59:03.418Z,44.26
2022-08-26T12:01:36.590Z,42.78
2022-08-26T12:04:07.743Z,41.56
2022-08-26T12:06:45.851Z,41.81
2022-08-26T12:09:27.401Z,41.67
2022-08-26T12:12:17.786Z,42.66
2022-08-26T12:14:45.338Z,40.14
2022-08-26T12:17:17.609Z,41.27
2022-08-26T12:19:46.469Z,40.82
2022-08-26T12:22:38.729Z,39.09
2022-08-26T12:25:11.256Z,38.62
2022-08-26T12:27:42.760Z,38.31
2022-08-26T12:30:19.990Z,37.97
2022-08-26T12:33:22.445Z,39.54
2022-08-26T12:35:56.209Z,39.19
2022-08-26T12:38:26.075Z,39.25
2022-08-26T12:40:53.237Z,36.69
2022-08-26T12:43:45.028Z,37.66
2022-08-26T12:46:17.021Z,36.24
2022-08-26T12:48:49.007Z,34.87
2022-08-26T12:51:35.261Z,36.41
2022-08-26T12:54:06.646Z,36.63
2022-08-26T12:56:39.425Z,37.08
2022-08-26T12:59:25.085Z,37.34
2022-08-26T13:01:53.439Z,38.48
2022-08-26T13:04:41.387Z,38.85
2022-08-26T13:07:23.265Z,37.10
2022-08-26T13:09:53.464Z,35.82
2022-08-26T13:12:29.426Z,32.87
2022-08-26T13:14:58.728Z,33.82
2022-08-26T13:17:27.605Z,31.22
2022-08-26T13:19:54.600Z,31.42
2022-08-26T13:22:24.320Z,31.54
2022-08-26T13:24:56.185Z,31.21
2022-08-26T13:27:26.162Z,30.53
2022-08-26T13:29:54.905Z,31.97
2022-08-26T13:32:23.786Z,31.52
2022-08-26T13:34:56.475Z,30.40
2022-08-26T13:37:24.330Z,31.07
2022-08-26T13:40:07.492Z,31.99
2022-08-26T13:42:34.708Z,31.13
2022-08-26T13:45:02.041Z,31.08
2022-08-26T13:47:28.924Z,30.54
2022-08-26T13:49:56.323Z,30.42
2022-08-26T13:52:30.102Z,31.73
2022-08-26T13:55:00.092Z,34.04
2022-08-26T13:57:28.432Z,35.93
2022-08-26T13:59:57.067Z,37.58
2022-08-26T14:02:24.100Z,39.49
2022-08-26T14:04:51.664Z,41.60
2022-08-26T14:07:18.557Z,42.11
2022-08-26T14:09:45.491Z,41.71
2022-08-26T14:12:12.340Z,43.13
2022-08-26T14:14:39.186Z,43.08
2022-08-26T14:17:06.973Z,43.92
2022-08-26T14:19:33.838Z,43.90
2022-08-26T14:22:01.684Z,43.42
2022-08-26T14:24:28.941Z,43.54
2022-08-26T14:26:55.964Z,43.61
2022-08-26T14:29:22.822Z,40.75
2022-08-26T14:31:49.709Z,37.79
2022-08-26T14:34:16.724Z,33.18
2022-08-26T14:36:43.805Z,30.68
2022-08-26T14:39:14.231Z,28.44
2022-08-26T14:41:55.840Z,29.87
2022-08-26T14:44:28.186Z,27.55
2022-08-26T14:46:55.356Z,26.08
2022-08-26T14:49:24.405Z,25.24
2022-08-26T14:51:51.292Z,25.72
2022-08-26T14:54:20.265Z,27.76
2022-08-26T14:57:04.944Z,27.86
2022-08-26T14:59:42.200Z,28.37
2022-08-26T15:02:13.920Z,26.97
2022-08-26T15:04:59.088Z,27.11
2022-08-26T15:07:25.919Z,27.15
2022-08-26T15:09:53.092Z,26.50
2022-08-26T15:12:19.968Z,26.80
2022-08-26T15:14:46.838Z,27.26
2022-08-26T15:17:13.680Z,27.17
2022-08-26T15:19:40.507Z,27.31
2022-08-26T15:22:07.366Z,27.68
2022-08-26T15:24:41.526Z,26.91
2022-08-26T15:27:09.012Z,26.91
2022-08-26T15:29:36.615Z,26.07
2022-08-26T15:32:04.467Z,25.98
2022-08-26T15:34:31.996Z,27.98
2022-08-26T15:36:58.820Z,29.07
2022-08-26T15:39:25.853Z,31.70
2022-08-26T15:41:52.699Z,34.53
2022-08-26T15:44:19.690Z,36.82
2022-08-26T15:46:49.582Z,38.24
2022-08-26T15:49:18.468Z,40.95
2022-08-26T15:51:46.959Z,41.98
2022-08-26T15:54:16.595Z,41.93
2022-08-26T15:56:44.230Z,43.21
2022-08-26T15:59:11.756Z,42.11
2022-08-26T16:01:39.685Z,41.98
2022-08-26T16:04:07.506Z,42.95
2022-08-26T16:06:37.921Z,43.33
2022-08-26T16:09:06.368Z,44.01
2022-08-26T16:11:35.862Z,45.11
2022-08-26T16:14:04.554Z,45.60
2022-08-26T16:16:32.168Z,45.47
2022-08-26T16:19:00.613Z,45.84
2022-08-26T16:21:32.208Z,45.71
2022-08-26T16:23:59.744Z,46.16
2022-08-26T16:26:32.457Z,46.00
2022-08-26T16:29:04.422Z,45.67
2022-08-26T16:31:31.340Z,45.83
2022-08-26T16:33:58.318Z,45.71
2022-08-26T16:36:25.187Z,45.43
2022-08-26T16:38:56.234Z,44.53
2022-08-26T16:41:25.769Z,45.16
2022-08-26T16:43:53.254Z,45.84
2022-08-26T16:46:22.137Z,46.52
2022-08-26T16:48:49.462Z,47.50
2022-08-26T16:51:19.054Z,48.15
2022-08-26T16:53:46.265Z,48.63
2022-08-26T16:56:19.962Z,49.23
2022-08-26T16:58:48.233Z,48.80
2022-08-26T17:01:16.605Z,48.79
2022-08-26T17:03:43.657Z,50.25
2022-08-26T17:06:10.626Z,50.44
2022-08-26T17:08:39.217Z,50.76
2022-08-26T17:11:06.960Z,51.58
2022-08-26T17:13:36.102Z,51.76
2022-08-26T17:16:05.806Z,51.92
2022-08-26T17:18:33.815Z,51.97
2022-08-26T17:21:08.441Z,52.40
2022-08-26T17:23:38.237Z,52.50
2022-08-26T17:26:05.471Z,52.44
2022-08-26T17:28:32.679Z,52.35
2022-08-26T17:30:59.849Z,53.24
2022-08-26T17:33:27.223Z,53.03
2022-08-26T17:35:55.713Z,53.04
2022-08-26T17:38:23.625Z,53.57
2022-08-26T17:40:51.375Z,54.13
2022-08-26T17:43:19.046Z,55.86
2022-08-26T17:45:46.136Z,55.42
2022-08-26T17:48:13.035Z,55.46
2022-08-26T17:50:42.342Z,56.20
2022-08-26T17:53:17.800Z,56.79
2022-08-26T17:55:50.276Z,57.52
2022-08-26T17:58:22.717Z,57.62
2022-08-26T18:00:52.244Z,58.20
2022-08-26T18:03:19.230Z,59.43
2022-08-26T18:05:52.013Z,59.30
2022-08-26T18:08:20.216Z,59.46
2022-08-26T18:10:47.645Z,60.15
2022-08-26T18:13:15.352Z,60.47
2022-08-26T18:15:44.085Z,60.53
2022-08-26T18:18:12.935Z,61.19
2022-08-26T18:20:42.231Z,61.54
2022-08-26T18:23:09.745Z,62.04
2022-08-26T18:25:41.501Z,62.26
2022-08-26T18:28:09.217Z,62.11
2022-08-26T18:30:36.300Z,62.00
2022-08-26T18:33:03.459Z,62.32
2022-08-26T18:35:30.641Z,61.90
2022-08-26T18:38:01.409Z,62.45
2022-08-26T18:40:44.020Z,63.73
2022-08-26T18:43:11.621Z,63.65
2022-08-26T18:45:38.764Z,63.24
2022-08-26T18:48:06.117Z,63.43
2022-08-26T18:50:33.348Z,63.68
2022-08-26T18:53:02.430Z,64.03
2022-08-26T18:55:29.309Z,64.30
2022-08-26T18:57:56.181Z,64.40
2022-08-26T19:00:23.722Z,64.51
2022-08-26T19:02:51.988Z,64.87
2022-08-26T19:05:22.784Z,64.70
2022-08-26T19:07:49.611Z,65.04
2022-08-26T19:10:16.591Z,65.17
2022-08-26T19:12:43.891Z,65.25
2022-08-26T19:15:11.457Z,65.75
2022-08-26T19:17:38.405Z,66.54
2022-08-26T19:20:06.498Z,66.91
2022-08-26T19:22:33.481Z,66.76
2022-08-26T19:25:01.243Z,67.09
2022-08-26T19:27:28.224Z,67.22
2022-08-26T19:29:56.359Z,67.72
2022-08-26T19:32:24.459Z,67.58
2022-08-26T19:34:54.674Z,67.37
2022-08-26T19:37:21.978Z,67.69
2022-08-26T19:39:49.060Z,68.14
2022-08-26T19:42:16.550Z,68.80
2022-08-26T19:45:02.056Z,68.90
2022-08-26T19:47:28.933Z,68.52
2022-08-26T19:49:56.347Z,69.08
2022-08-26T19:52:24.259Z,69.46
2022-08-26T19:54:57.541Z,69.93
2022-08-26T19:57:24.402Z,70.24
2022-08-26T19:59:51.225Z,70.25
2022-08-26T20:02:18.154Z,70.00
2022-08-26T20:04:45.760Z,69.92
2022-08-26T20:07:18.077Z,69.04
2022-08-26T20:09:47.004Z,70.05
2022-08-26T20:12:15.356Z,70.24
2022-08-26T20:14:42.289Z,70.77
2022-08-26T20:17:09.253Z,70.51
2022-08-26T20:19:54.993Z,70.76
2022-08-26T20:22:22.599Z,70.58
2022-08-26T20:24:49.769Z,70.80
2022-08-26T20:27:16.610Z,70.89
2022-08-26T20:29:43.569Z,70.97
2022-08-26T20:32:12.029Z,70.77
2022-08-26T20:34:39.979Z,70.68
2022-08-26T20:37:08.379Z,70.90
2022-08-26T20:39:35.723Z,71.38
2022-08-26T20:42:03.185Z,71.18
2022-08-26T20:44:30.161Z,71.12
2022-08-26T20:46:59.048Z,71.04
2022-08-26T20:49:27.996Z,71.03
2022-08-26T20:51:55.372Z,71.00
2022-08-26T20:54:28.263Z,71.28
2022-08-26T20:56:57.516Z,71.68
2022-08-26T20:59:25.485Z,71.87
2022-08-26T21:01:53.027Z,72.58
2022-08-26T21:04:24.065Z,72.93
2022-08-26T21:06:52.609Z,73.09
2022-08-26T21:09:21.915Z,73.01
2022-08-26T21:11:49.945Z,73.21
2022-08-26T21:14:17.524Z,73.40
2022-08-26T21:16:46.401Z,73.35
2022-08-26T21:19:17.886Z,73.63
2022-08-26T21:21:46.998Z,73.83
2022-08-26T21:24:14.545Z,74.26
2022-08-26T21:26:42.185Z,74.15
2022-08-26T21:29:09.819Z,74.43
2022-08-26T21:31:43.515Z,75.13
2022-08-26T21:34:13.217Z,75.47
2022-08-26T21:36:40.197Z,75.82
2022-08-26T21:39:11.434Z,75.78
2022-08-26T21:41:40.696Z,75.95
2022-08-26T21:44:08.426Z,76.20
2022-08-26T21:46:37.194Z,76.40
2022-08-26T21:49:09.921Z,76.04
2022-08-26T21:51:41.272Z,76.24
2022-08-26T21:54:11.264Z,75.96
2022-08-26T21:56:44.207Z,75.45
2022-08-26T21:59:11.794Z,75.32
2022-08-26T22:01:38.857Z,75.37
2022-08-26T22:04:08.978Z,75.14
2022-08-26T22:06:47.681Z,75.54
2022-08-26T22:09:19.692Z,75.88
2022-08-26T22:11:47.344Z,76.23
2022-08-26T22:14:16.494Z,76.06
2022-08-26T22:16:50.178Z,75.73
2022-08-26T22:19:19.912Z,74.95
2022-08-26T22:21:51.164Z,73.09
2022-08-26T22:24:19.582Z,72.64
2022-08-26T22:26:48.015Z,72.68
2022-08-26T22:29:15.997Z,72.45
2022-08-26T22:31:43.165Z,72.57
2022-08-26T22:34:15.613Z,73.85
2022-08-26T22:36:46.729Z,73.73
2022-08-26T22:39:17.342Z,73.92
2022-08-26T22:41:48.504Z,73.79
2022-08-26T22:44:17.914Z,75.87
2022-08-26T22:46:47.362Z,77.28
2022-08-26T22:49:17.989Z,77.89
2022-08-26T22:51:45.774Z,78.62
2022-08-26T22:54:14.090Z,79.86
2022-08-26T22:56:41.319Z,78.51
2022-08-26T22:59:08.967Z,78.57
2022-08-26T23:01:39.123Z,78.62
2022-08-26T23:04:07.502Z,77.56
2022-08-26T23:06:37.816Z,78.08
2022-08-26T23:09:06.583Z,78.00
2022-08-26T23:11:34.551Z,78.54
2022-08-26T23:14:02.306Z,78.20
2022-08-26T23:16:41.445Z,78.39
2022-08-26T23:19:13.586Z,79.19
2022-08-26T23:21:40.967Z,79.34
2022-08-26T23:24:09.052Z,79.35
2022-08-26T23:26:36.788Z,78.48
2022-08-26T23:29:05.351Z,79.15
2022-08-26T23:31:32.735Z,79.69
2022-08-26T23:34:19.131Z,79.49
2022-08-26T23:36:46.353Z,80.35
2022-08-26T23:39:14.626Z,81.55
2022-08-26T23:41:42.152Z,81.31
2022-08-26T23:44:08.982Z,82.42
2022-08-26T23:46:36.522Z,82.22
2022-08-26T23:49:06.097Z,81.65
2022-08-26T23:51:51.356Z,81.46
2022-08-26T23:54:19.486Z,81.72
2022-08-26T23:56:46.791Z,81.68
2022-08-26T23:59:13.689Z,81.63
